.
WxDataArchive / Data Records for 2007-11-10
2007-11-09 November 2007 2007-11-11

Data Records for Saturday, 10 November 2007

Time	Temp	Chill	HIndex	Humid	Dewpt	 Wind 	HiWind	WindDir	Rain 	Barom 
-----	----	-----	------	-----	-----	------	------	-------	-----	----- 
00:00	36.8	36.8	36.8	73	29.0	0	1	292	0.00	30.026 
00:05	36.6	36.6	36.6	74	29.1	0	1	292	0.00	30.025 
00:10	36.5	36.5	36.5	74	29.0	0	1	292	0.00	30.025 
00:15	36.3	36.3	36.3	75	29.1	0	1	292	0.00	30.026 
00:20	36.2	36.2	36.2	76	29.4	0	1	292	0.00	30.027 
00:25	36.2	36.2	36.2	77	29.7	0	1	292	0.00	30.029 
00:30	36.2	36.2	36.2	77	29.7	0	1	292	0.00	30.032 
00:35	36.0	36.0	36.0	77	29.5	0	0	---	0.00	30.035 
00:40	35.8	35.8	35.8	78	29.6	0	0	---	0.00	30.039 
00:45	35.5	35.5	35.5	78	29.3	0	1	292	0.00	30.041 
00:50	35.3	35.3	35.3	79	29.4	0	0	---	0.00	30.042 
00:55	35.0	35.0	35.0	80	29.5	0	0	---	0.00	30.042 
01:00	34.9	34.9	34.9	80	29.4	0	0	---	0.00	30.043 
01:05	34.6	34.6	34.6	81	29.4	0	1	292	0.00	30.044 
01:10	34.4	34.4	34.4	81	29.2	0	0	---	0.00	30.044 
01:15	34.3	34.3	34.3	82	29.4	0	0	---	0.00	30.044 
01:20	34.1	34.1	34.1	82	29.2	0	0	---	0.00	30.046 
01:25	34.0	34.0	34.0	83	29.4	0	0	---	0.00	30.046 
01:30	34.1	34.1	34.1	84	29.8	0	0	---	0.00	30.048 
01:35	34.1	34.1	34.1	84	29.8	0	0	---	0.00	30.051 
01:40	34.1	34.1	34.1	84	29.8	0	0	---	0.00	30.053 
01:45	34.0	34.0	34.0	85	30.0	0	0	---	0.00	30.058 
01:50	34.1	34.1	34.1	86	30.4	0	1	292	0.00	30.059 
01:55	34.0	34.0	34.0	86	30.3	0	0	---	0.00	30.061 
02:00	33.8	33.8	33.8	86	30.1	0	0	---	0.00	30.063 
02:05	33.5	33.5	33.5	86	29.8	0	0	---	0.00	30.067 
02:10	33.4	33.4	33.4	86	29.7	0	0	---	0.00	30.066 
02:15	33.2	33.2	33.2	86	29.5	0	0	---	0.00	30.067 
02:20	32.9	32.9	32.9	86	29.2	0	0	---	0.00	30.070 
02:25	32.8	32.8	32.8	87	29.4	0	0	---	0.00	30.072 
02:30	32.7	32.7	32.7	87	29.3	0	0	---	0.00	30.075 
02:35	32.4	32.4	32.4	88	29.3	0	0	---	0.00	30.077 
02:40	32.2	32.2	32.2	88	29.1	0	0	---	0.00	30.079 
02:45	31.9	31.9	31.9	88	28.8	0	0	---	0.00	30.079 
02:50	31.8	31.8	31.8	88	28.7	0	0	---	0.00	30.079 
02:55	31.5	31.5	31.5	88	28.4	0	0	---	0.00	30.079 
03:00	31.3	31.3	31.3	89	28.4	0	0	---	0.00	30.080 
03:05	31.3	31.3	31.3	89	28.4	0	0	---	0.00	30.082 
03:10	31.3	31.3	31.3	90	28.7	0	0	---	0.00	30.082 
03:15	31.3	31.3	31.3	90	28.7	0	0	---	0.00	30.081 
03:20	31.3	31.3	31.3	91	29.0	0	0	---	0.00	30.080 
03:25	31.5	31.5	31.5	91	29.2	0	0	---	0.00	30.077 
03:30	31.8	31.8	31.8	91	29.5	0	0	---	0.00	30.077 
03:35	31.8	31.8	31.8	92	29.7	0	0	---	0.00	30.079 
03:40	31.9	31.9	31.9	92	29.8	0	0	---	0.00	30.080 
03:45	32.1	32.1	32.1	92	30.0	0	0	---	0.00	30.081 
03:50	32.4	32.4	32.4	92	30.3	0	1	292	0.00	30.081 
03:55	32.8	32.8	32.8	93	31.0	0	0	---	0.00	30.082 
04:00	33.1	33.1	33.1	93	31.3	0	0	---	0.00	30.081 
04:05	33.4	33.4	33.4	93	31.6	0	1	292	0.00	30.084 
04:10	33.5	33.5	33.5	93	31.7	0	0	---	0.00	30.086 
04:15	33.8	33.8	33.8	93	32.0	0	1	292	0.00	30.087 
04:20	34.1	34.1	34.1	93	32.3	0	1	292	0.00	30.094 
04:25	34.3	34.3	34.3	93	32.5	0	1	292	0.00	30.096 
04:30	34.4	34.4	34.4	93	32.6	0	1	292	0.00	30.098 
04:35	34.7	34.7	34.7	92	32.6	0	1	292	0.00	30.102 
04:40	34.7	34.7	34.7	92	32.6	0	2	292	0.00	30.108 
04:45	34.6	34.6	34.6	92	32.5	0	1	292	0.00	30.110 
04:50	34.4	34.4	34.4	92	32.3	0	1	292	0.00	30.111 
04:55	34.3	34.3	34.3	92	32.2	0	1	292	0.00	30.116 
05:00	34.1	34.1	34.1	92	32.0	0	1	292	0.00	30.120 
05:05	34.0	34.0	34.0	92	31.9	0	2	292	0.00	30.123 
05:10	33.8	33.8	33.8	92	31.7	0	1	292	0.00	30.123 
05:15	33.7	33.7	33.7	92	31.6	0	0	---	0.00	30.124 
05:20	33.5	33.5	33.5	92	31.4	0	1	292	0.00	30.126 
05:25	33.4	33.4	33.4	92	31.3	0	1	292	0.00	30.128 
05:30	33.2	33.2	33.2	92	31.1	0	0	---	0.00	30.128 
05:35	33.1	33.1	33.1	92	31.0	0	0	---	0.00	30.129 
05:40	32.9	32.9	32.9	92	30.8	0	0	---	0.00	30.130 
05:45	32.8	32.8	32.8	92	30.7	0	0	---	0.00	30.134 
05:50	32.7	32.7	32.7	92	30.6	0	0	---	0.00	30.137 
05:55	32.5	32.5	32.5	92	30.4	0	0	---	0.00	30.134 
06:00	32.4	32.4	32.4	92	30.3	0	0	---	0.00	30.140 
06:05	32.2	32.2	32.2	92	30.1	0	0	---	0.00	30.139 
06:10	31.9	31.9	31.9	92	29.8	0	0	---	0.00	30.139 
06:15	31.8	31.8	31.8	92	29.7	0	0	---	0.00	30.142 
06:20	31.6	31.6	31.6	92	29.5	0	0	---	0.00	30.143 
06:25	31.8	31.8	31.8	93	30.0	0	0	---	0.00	30.145 
06:30	32.1	32.1	32.1	93	30.3	0	0	---	0.00	30.146 
06:35	32.4	32.4	32.4	94	30.9	0	0	---	0.00	30.147 
06:40	32.5	32.5	32.5	94	31.0	0	1	292	0.00	30.148 
06:45	32.7	32.7	32.7	94	31.2	0	0	---	0.00	30.149 
06:50	32.8	32.8	32.8	94	31.3	0	1	292	0.00	30.154 
06:55	32.8	32.8	32.8	94	31.3	0	0	---	0.00	30.160 
07:00	32.9	32.9	32.9	94	31.4	0	1	292	0.00	30.161 
07:05	32.9	32.9	32.9	94	31.4	0	1	292	0.00	30.162 
07:10	32.9	32.9	32.9	94	31.4	0	0	---	0.00	30.164 
07:15	32.9	32.9	32.9	94	31.4	0	0	---	0.00	30.168 
07:20	32.8	32.8	32.8	94	31.3	0	0	---	0.00	30.166 
07:25	32.8	32.8	32.8	94	31.3	0	0	---	0.00	30.166 
07:30	32.7	32.7	32.7	94	31.2	0	0	---	0.00	30.167 
07:35	32.7	32.7	32.7	94	31.2	0	0	---	0.00	30.168 
07:40	32.7	32.7	32.7	94	31.2	0	0	---	0.00	30.173 
07:45	32.7	32.7	32.7	94	31.2	0	0	---	0.00	30.176 
07:50	32.7	32.7	32.7	94	31.2	0	0	---	0.00	30.177 
07:55	32.8	32.8	32.8	94	31.3	0	0	---	0.00	30.177 
08:00	32.9	32.9	32.9	94	31.4	0	0	---	0.00	30.178 
08:05	33.1	33.1	33.1	94	31.6	0	0	---	0.00	30.181 
08:10	33.2	33.2	33.2	94	31.7	0	0	---	0.00	30.181 
08:15	33.7	33.7	33.7	94	32.2	0	1	292	0.00	30.184 
08:20	34.1	34.1	34.1	94	32.6	0	1	292	0.00	30.188 
08:25	34.6	34.6	34.6	94	33.1	0	1	292	0.00	30.191 
08:30	34.9	34.9	34.9	94	33.4	0	1	292	0.00	30.192 
08:35	35.3	35.3	35.3	93	33.5	0	1	292	0.00	30.192 
08:40	35.6	35.6	35.6	93	33.8	0	1	292	0.00	30.192 
08:45	35.9	35.9	35.9	92	33.8	0	1	292	0.00	30.195 
08:50	36.3	36.3	36.3	91	33.9	0	1	292	0.00	30.197 
08:55	36.8	36.8	36.8	91	34.4	0	1	292	0.00	30.203 
09:00	37.2	37.2	37.2	89	34.3	0	1	292	0.00	30.201 
09:05	37.5	37.5	37.5	88	34.3	0	1	292	0.00	30.202 
09:10	37.9	37.9	37.9	87	34.4	0	1	292	0.00	30.205 
09:15	37.9	37.9	37.9	86	34.1	0	2	292	0.00	30.208 
09:20	38.0	38.0	38.0	86	34.2	0	2	292	0.00	30.212 
09:25	38.3	38.3	38.3	86	34.5	0	1	292	0.00	30.211 
09:30	38.6	38.6	38.6	85	34.5	0	1	292	0.00	30.210 
09:35	38.9	38.9	38.9	85	34.8	0	1	292	0.00	30.210 
09:40	39.2	39.2	39.2	84	34.8	0	1	292	0.00	30.215 
09:45	39.3	39.3	39.3	83	34.6	0	1	292	0.00	30.215 
09:50	39.6	39.6	39.6	84	35.2	0	1	292	0.00	30.218 
09:55	39.9	39.9	39.9	83	35.2	0	1	292	0.00	30.220 
10:00	40.2	40.2	40.2	82	35.2	0	1	292	0.00	30.220 
10:05	40.5	40.5	40.5	81	35.1	0	1	292	0.00	30.219 
10:10	40.9	40.9	40.9	81	35.5	0	3	338	0.00	30.217 
10:15	41.2	41.2	41.2	80	35.5	0	1	338	0.00	30.220 
10:20	41.5	41.5	41.5	80	35.8	0	1	338	0.00	30.219 
10:25	41.9	41.9	41.9	79	35.9	0	1	338	0.00	30.219 
10:30	42.2	42.2	42.2	78	35.8	0	2	338	0.00	30.221 
10:35	42.6	42.6	42.6	76	35.6	0	1	338	0.00	30.223 
10:40	43.1	43.1	43.1	77	36.4	0	1	338	0.00	30.222 
10:45	43.2	43.2	43.2	74	35.5	0	2	338	0.00	30.226 
10:50	43.3	43.3	43.3	74	35.6	0	2	338	0.00	30.231 
10:55	43.6	43.6	43.6	71	34.8	0	2	338	0.00	30.232 
11:00	44.1	44.1	44.1	72	35.7	1	4	338	0.00	30.232 
11:05	44.5	44.5	44.5	70	35.3	1	3	90	0.00	30.232 
11:10	44.6	44.6	44.6	67	34.3	0	2	90	0.00	30.229 
11:15	44.5	44.5	44.5	69	35.0	0	1	90	0.00	30.228 
11:20	44.6	44.6	44.6	69	35.1	0	1	90	0.00	30.231 
11:25	44.5	44.5	44.5	67	34.2	1	3	90	0.00	30.232 
11:30	44.5	44.5	44.5	69	35.0	0	2	90	0.00	30.232 
11:35	44.8	44.8	44.8	68	34.9	0	3	90	0.00	30.232 
11:40	45.1	45.1	45.1	67	34.8	2	4	90	0.00	30.231 
11:45	45.4	45.4	45.4	65	34.3	1	3	90	0.00	30.223 
11:50	45.7	45.7	45.7	67	35.4	2	4	90	0.00	30.221 
11:55	45.8	45.8	45.8	66	35.1	0	2	90	0.00	30.220 
12:00	45.8	45.8	45.8	64	34.3	1	3	68	0.00	30.219 
12:05	45.5	45.5	45.5	65	34.4	1	4	68	0.00	30.220 
12:10	45.5	45.5	45.5	66	34.8	1	3	112	0.00	30.219 
12:15	45.2	45.2	45.2	66	34.5	0	2	112	0.00	30.217 
12:20	45.1	45.1	45.1	66	34.4	0	1	112	0.00	30.218 
12:25	44.8	44.8	44.8	66	34.1	1	3	112	0.00	30.219 
12:30	44.6	44.6	44.6	67	34.3	0	2	112	0.00	30.217 
12:35	44.5	44.5	44.5	66	33.9	0	2	112	0.00	30.216 
12:40	44.5	44.5	44.5	66	33.9	0	0	---	0.00	30.217 
12:45	44.6	44.6	44.6	65	33.6	0	2	112	0.00	30.214 
12:50	44.9	44.9	44.9	64	33.5	0	1	112	0.00	30.215 
12:55	45.2	45.2	45.2	65	34.1	0	1	112	0.00	30.209 
13:00	45.8	45.8	45.8	63	33.9	1	2	112	0.00	30.207 
13:05	46.2	46.2	46.2	61	33.5	1	4	112	0.00	30.206 
13:10	46.5	46.5	46.5	63	34.6	1	3	90	0.00	30.204 
13:15	46.7	46.7	46.7	61	34.0	1	4	90	0.00	30.204 
13:20	47.1	47.1	47.1	63	35.2	1	4	112	0.00	30.204 
13:25	46.8	46.8	46.8	60	33.7	2	4	112	0.00	30.199 
13:30	47.0	47.0	47.0	62	34.7	0	2	112	0.00	30.193 
13:35	47.3	47.3	47.3	61	34.5	1	4	112	0.00	30.191 
13:40	47.6	47.6	47.6	59	34.0	1	3	112	0.00	30.192 
13:45	47.4	47.4	47.4	61	34.6	1	4	112	0.00	30.191 
13:50	47.6	47.6	47.6	59	34.0	0	2	135	0.00	30.187 
13:55	47.9	47.9	47.9	59	34.3	0	2	202	0.00	30.186 
14:00	47.7	47.7	47.7	58	33.7	1	2	112	0.00	30.186 
14:05	47.7	47.7	47.7	59	34.1	1	2	112	0.00	30.188 
14:10	48.0	48.0	48.0	60	34.8	0	3	135	0.00	30.184 
14:15	48.0	48.0	48.0	58	33.9	1	4	135	0.00	30.178 
14:20	48.0	48.0	48.0	58	33.9	0	2	158	0.00	30.178 
14:25	48.0	48.0	48.0	58	33.9	0	2	158	0.00	30.178 
14:30	48.0	48.0	48.0	57	33.5	0	2	270	0.00	30.176 
14:35	47.9	47.9	47.9	58	33.8	0	2	270	0.00	30.176 
14:40	47.7	47.7	47.7	57	33.2	0	2	270	0.00	30.177 
14:45	47.4	47.4	47.4	58	33.4	1	2	270	0.00	30.175 
14:50	47.1	47.1	47.1	58	33.1	1	3	202	0.00	30.175 
14:55	47.1	47.1	47.1	60	33.9	0	2	180	0.00	30.174 
15:00	47.1	47.1	47.1	58	33.1	0	2	158	0.00	30.175 
15:05	47.3	47.3	47.3	59	33.7	0	2	158	0.00	30.172 
15:10	47.3	47.3	47.3	59	33.7	1	3	135	0.00	30.170 
15:15	47.3	47.3	47.3	60	34.1	0	2	135	0.00	30.172 
15:20	47.3	47.3	47.3	59	33.7	0	1	135	0.00	30.173 
15:25	47.4	47.4	47.4	58	33.4	0	1	135	0.00	30.172 
15:30	47.4	47.4	47.4	58	33.4	1	3	135	0.00	30.172 
15:35	47.3	47.3	47.3	58	33.3	0	1	135	0.00	30.171 
15:40	47.3	47.3	47.3	59	33.7	0	2	135	0.00	30.171 
15:45	47.3	47.3	47.3	59	33.7	1	2	135	0.00	30.170 
15:50	47.1	47.1	47.1	59	33.5	1	2	135	0.00	30.172 
15:55	47.1	47.1	47.1	59	33.5	0	1	135	0.00	30.172 
16:00	47.1	47.1	47.1	60	33.9	0	2	135	0.00	30.173 
16:05	47.0	47.0	47.0	59	33.4	0	2	135	0.00	30.173 
16:10	46.8	46.8	46.8	59	33.2	0	1	135	0.00	30.174 
16:15	46.7	46.7	46.7	58	32.7	0	2	135	0.00	30.172 
16:20	46.7	46.7	46.7	59	33.1	0	1	135	0.00	30.172 
16:25	46.5	46.5	46.5	59	33.0	0	1	135	0.00	30.174 
16:30	46.7	46.7	46.7	59	33.1	0	1	135	0.00	30.172 
16:35	46.7	46.7	46.7	60	33.6	0	1	135	0.00	30.174 
16:40	46.5	46.5	46.5	60	33.4	0	2	112	0.00	30.175 
16:45	46.2	46.2	46.2	61	33.5	0	2	112	0.00	30.176 
16:50	46.1	46.1	46.1	61	33.4	0	1	112	0.00	30.174 
16:55	46.0	46.0	46.0	62	33.7	0	2	112	0.00	30.172 
17:00	45.8	45.8	45.8	62	33.5	0	1	112	0.00	30.172 
17:05	45.7	45.7	45.7	62	33.4	0	1	112	0.00	30.173 
17:10	45.7	45.7	45.7	63	33.8	0	1	112	0.00	30.173 
17:15	45.5	45.5	45.5	63	33.6	0	1	112	0.00	30.171 
17:20	45.4	45.4	45.4	64	33.9	0	1	112	0.00	30.174 
17:25	45.1	45.1	45.1	64	33.7	0	1	112	0.00	30.175 
17:30	44.9	44.9	44.9	64	33.5	0	0	---	0.00	30.176 
17:35	44.6	44.6	44.6	65	33.6	0	0	---	0.00	30.177 
17:40	44.2	44.2	44.2	65	33.2	0	0	---	0.00	30.178 
17:45	43.8	43.8	43.8	67	33.6	0	0	---	0.00	30.178 
17:50	43.2	43.2	43.2	68	33.4	0	0	---	0.00	30.179 
17:55	42.8	42.8	42.8	69	33.3	0	0	---	0.00	30.178 
18:00	42.3	42.3	42.3	70	33.2	0	1	112	0.00	30.177 
18:05	42.1	42.1	42.1	71	33.4	0	1	112	0.00	30.178 
18:10	42.1	42.1	42.1	70	33.0	0	2	112	0.00	30.179 
18:15	42.5	42.5	42.5	70	33.4	1	3	68	0.00	30.178 
18:20	42.6	42.6	42.6	70	33.5	1	2	68	0.00	30.175 
18:25	42.6	42.6	42.6	70	33.5	0	3	68	0.00	30.178 
18:30	42.5	42.5	42.5	70	33.4	0	2	68	0.00	30.178 
18:35	42.3	42.3	42.3	70	33.2	1	3	68	0.00	30.176 
18:40	42.3	42.3	42.3	71	33.6	0	2	68	0.00	30.177 
18:45	42.1	42.1	42.1	71	33.4	0	2	68	0.00	30.179 
18:50	41.8	41.8	41.8	71	33.1	0	1	68	0.00	30.180 
18:55	41.6	41.6	41.6	72	33.3	0	1	68	0.00	30.180 
19:00	41.3	41.3	41.3	73	33.3	0	1	68	0.00	30.178 
19:05	41.1	41.1	41.1	73	33.1	0	1	68	0.00	30.176 
19:10	40.8	40.8	40.8	73	32.8	0	1	68	0.00	30.174 
19:15	40.5	40.5	40.5	74	32.9	0	1	68	0.00	30.171 
19:20	40.3	40.3	40.3	74	32.7	0	1	68	0.00	30.169 
19:25	40.3	40.3	40.3	74	32.7	0	2	68	0.00	30.169 
19:30	40.2	40.2	40.2	74	32.6	0	2	112	0.00	30.170 
19:35	40.2	40.2	40.2	74	32.6	0	1	112	0.00	30.175 
19:40	40.1	40.1	40.1	74	32.5	0	1	112	0.00	30.177 
19:45	39.8	39.8	39.8	74	32.2	0	1	112	0.00	30.178 
19:50	39.6	39.6	39.6	75	32.3	0	1	112	0.00	30.179 
19:55	39.5	39.5	39.5	75	32.2	0	1	112	0.00	30.176 
20:00	39.3	39.3	39.3	75	32.0	0	0	---	0.00	30.171 
20:05	39.2	39.2	39.2	76	32.3	0	1	112	0.00	30.165 
20:10	39.2	39.2	39.2	76	32.3	0	1	112	0.00	30.163 
20:15	39.1	39.1	39.1	76	32.2	0	1	112	0.00	30.165 
20:20	39.1	39.1	39.1	76	32.2	0	0	---	0.00	30.163 
20:25	39.1	39.1	39.1	76	32.2	0	0	---	0.00	30.162 
20:30	39.1	39.1	39.1	76	32.2	0	1	112	0.00	30.162 
20:35	39.2	39.2	39.2	76	32.3	0	2	112	0.00	30.160 
20:40	39.2	39.2	39.2	76	32.3	0	2	112	0.00	30.159 
20:45	39.3	39.3	39.3	76	32.4	0	1	112	0.00	30.158 
20:50	39.5	39.5	39.5	76	32.6	0	1	112	0.00	30.157 
20:55	39.6	39.6	39.6	76	32.7	0	2	112	0.00	30.157 
21:00	39.8	39.8	39.8	76	32.9	0	1	112	0.00	30.159 
21:05	39.8	39.8	39.8	75	32.5	0	1	112	0.00	30.156 
21:10	39.9	39.9	39.9	75	32.6	0	3	112	0.00	30.156 
21:15	40.1	40.1	40.1	75	32.8	0	2	112	0.00	30.157 
21:20	40.2	40.2	40.2	75	32.9	0	1	112	0.00	30.156 
21:25	40.2	40.2	40.2	74	32.6	0	1	112	0.00	30.155 
21:30	40.2	40.2	40.2	74	32.6	0	2	112	0.00	30.153 
21:35	40.3	40.3	40.3	74	32.7	1	2	112	0.00	30.145 
21:40	40.3	40.3	40.3	75	33.0	0	2	112	0.00	30.139 
21:45	40.3	40.3	40.3	74	32.7	1	5	90	0.00	30.138 
21:50	40.3	40.3	40.3	74	32.7	0	2	45	0.00	30.138 
21:55	40.3	40.3	40.3	74	32.7	1	3	90	0.00	30.135 
22:00	40.3	40.3	40.3	74	32.7	1	3	90	0.00	30.128 
22:05	40.5	40.5	40.5	73	32.5	1	3	112	0.00	30.128 
22:10	40.5	40.5	40.5	73	32.5	1	3	112	0.00	30.128 
22:15	40.6	40.6	40.6	73	32.6	0	2	135	0.00	30.132 
22:20	40.6	40.6	40.6	73	32.6	0	2	112	0.00	30.133 
22:25	40.6	40.6	40.6	72	32.3	1	5	112	0.00	30.129 
22:30	40.8	40.8	40.8	72	32.5	1	4	112	0.00	30.132 
22:35	40.8	40.8	40.8	72	32.5	1	3	112	0.00	30.137 
22:40	40.8	40.8	40.8	72	32.5	0	2	112	0.00	30.138 
22:45	40.6	40.6	40.6	73	32.6	0	1	135	0.00	30.143 
22:50	40.5	40.5	40.5	73	32.5	0	2	135	0.00	30.144 
22:55	40.3	40.3	40.3	73	32.3	0	1	135	0.00	30.148 
23:00	40.2	40.2	40.2	74	32.6	0	1	135	0.00	30.148 
23:05	39.9	39.9	39.9	74	32.3	0	2	135	0.00	30.149 
23:10	39.8	39.8	39.8	74	32.2	0	1	135	0.00	30.151 
23:15	39.5	39.5	39.5	75	32.2	0	1	135	0.00	30.151 
23:20	39.3	39.3	39.3	76	32.4	0	1	135	0.00	30.153 
23:25	39.1	39.1	39.1	76	32.2	0	1	135	0.00	30.155 
23:30	38.8	38.8	38.8	77	32.2	0	0	---	0.00	30.161 
23:35	38.5	38.5	38.5	77	31.9	0	0	---	0.00	30.158 
23:40	38.3	38.3	38.3	78	32.1	0	0	---	0.00	30.155 
23:45	38.2	38.2	38.2	78	32.0	0	0	---	0.00	30.156 
23:50	38.0	38.0	38.0	79	32.1	0	1	135	0.00	30.153 
23:55	38.0	38.0	38.0	79	32.1	0	1	135	0.00	30.152 

CoCoRaHS
IN-AL-39
A2 Web Hosting
Creative Commons License
GoDaddy
Look for:

loaded 2017-10-17 09:31:14 • last modified 2010-11-18 10:43:29
Privacy PolicyDisclaimer
• wx.awcolley.com is powered by PmWiki v.2002016 •
• all content (unless otherwise noted) © 2017 A W Colley